Time;durP1;ratioP1;P1;durP2;ratioP2;P2;SDS_P1;SDS_P2;PMS_P1;PMS_P2;Temp;Humidity;BMP_temperature;BMP_pressure;BME280_temperature;BME280_humidity;BME280_pressure;Samples;Min_cycle;Max_cycle;Signal;HPM_P1;HPM_P2
2020/12/11 00:00:44;;;;;;;;;54.25;46.25;;;;;;;;12429044;28;8876;-48
2020/12/11 00:06:46;;;;;;;;;60.50;49.00;;;;;;;;12428748;28;8855;-50
2020/12/11 00:12:50;;;;;;;;;58.25;49.00;;;;;;;;12430194;28;8832;-49
2020/12/11 00:18:53;;;;;;;;;45.50;43.75;;;;;;;;12433911;28;8860;-49
2020/12/11 00:24:55;;;;;;;;;57.50;45.25;;;;;;;;12438671;28;8867;-48
2020/12/11 00:30:57;;;;;;;;;56.75;43.75;;;;;;;;12437404;28;8840;-48
2020/12/11 00:36:59;;;;;;;;;42.50;40.00;;;;;;;;12436649;28;8947;-47
2020/12/11 00:43:00;;;;;;;;;51.50;43.75;;;;;;;;12438000;28;8860;-48
2020/12/11 00:49:02;;;;;;;;;38.75;38.50;;;;;;;;12436910;28;8860;-46
2020/12/11 00:55:03;;;;;;;;;55.75;44.50;;;;;;;;12437428;28;9566;-49
2020/12/11 01:01:05;;;;;;;;;57.75;43.75;;;;;;;;12436402;28;8859;-50
2020/12/11 01:07:06;;;;;;;;;46.25;41.50;;;;;;;;12434787;28;8867;-48
2020/12/11 01:13:07;;;;;;;;;47.00;40.75;;;;;;;;12437085;28;9710;-48
2020/12/11 01:19:09;;;;;;;;;46.75;40.75;;;;;;;;12435103;28;8867;-49
2020/12/11 01:25:10;;;;;;;;;48.00;40.75;;;;;;;;12435785;28;8875;-50
2020/12/11 01:31:17;;;;;;;;;47.25;40.75;;;;;;;;12434905;28;8875;-50
2020/12/11 01:37:18;;;;;;;;;41.75;38.75;;;;;;;;12426821;28;8847;-49
2020/12/11 01:43:20;;;;;;;;;50.25;41.75;;;;;;;;12417185;28;8872;-51
2020/12/11 01:49:23;;;;;;;;;42.25;37.50;;;;;;;;12433549;28;9713;-50
2020/12/11 01:55:24;;;;;;;;;42.75;39.00;;;;;;;;12434473;28;8853;-49
2020/12/11 02:01:27;;;;;;;;;40.75;38.50;;;;;;;;12433323;28;8909;-51
2020/12/11 02:07:28;;;;;;;;;47.25;43.25;;;;;;;;12431983;28;8878;-47
2020/12/11 02:13:30;;;;;;;;;48.00;41.25;;;;;;;;12433848;28;8844;-48
2020/12/11 02:19:35;;;;;;;;;49.50;41.25;;;;;;;;12432239;28;8887;-47
2020/12/11 02:25:40;;;;;;;;;42.25;38.75;;;;;;;;12431826;28;8847;-48
2020/12/11 02:31:41;;;;;;;;;64.75;54.25;;;;;;;;12430749;28;8847;-49
2020/12/11 02:37:42;;;;;;;;;68.50;53.75;;;;;;;;12431696;28;9627;-51
2020/12/11 02:43:44;;;;;;;;;81.50;62.75;;;;;;;;12431053;28;8852;-49
2020/12/11 02:49:46;;;;;;;;;79.50;60.75;;;;;;;;12431078;28;9613;-48
2020/12/11 02:55:48;;;;;;;;;79.00;60.75;;;;;;;;12431660;28;8886;-53
2020/12/11 03:01:49;;;;;;;;;77.00;58.75;;;;;;;;12429880;28;8856;-48
2020/12/11 03:07:52;;;;;;;;;72.75;57.00;;;;;;;;12430236;28;9590;-50
2020/12/11 03:13:54;;;;;;;;;72.00;56.25;;;;;;;;12432149;28;8852;-47
2020/12/11 03:19:56;;;;;;;;;73.00;58.00;;;;;;;;12429681;28;8836;-48
2020/12/11 03:25:57;;;;;;;;;75.25;58.50;;;;;;;;12431207;28;9617;-49
2020/12/11 03:31:59;;;;;;;;;68.00;53.25;;;;;;;;12428082;28;8958;-46
2020/12/11 03:38:00;;;;;;;;;79.75;59.25;;;;;;;;12427704;28;8841;-49
2020/12/11 03:44:01;;;;;;;;;62.75;47.50;;;;;;;;12429456;28;8855;-47
2020/12/11 03:50:03;;;;;;;;;80.67;63.67;;;;;;;;12427375;28;8848;-49
2020/12/11 03:56:04;;;;;;;;;83.75;65.75;;;;;;;;12437343;28;8855;-50
2020/12/11 04:02:07;;;;;;;;;85.33;64.00;;;;;;;;12436723;28;8848;-48
2020/12/11 04:08:08;;;;;;;;;72.75;59.75;;;;;;;;12436022;28;8840;-49
2020/12/11 04:14:09;;;;;;;;;85.00;66.00;;;;;;;;12438411;28;8844;-49
2020/12/11 04:20:11;;;;;;;;;82.00;62.25;;;;;;;;12436764;28;8876;-50
2020/12/11 04:26:12;;;;;;;;;79.00;58.00;;;;;;;;12437834;28;9613;-53
2020/12/11 04:32:14;;;;;;;;;60.25;51.25;;;;;;;;12429488;28;8848;-48
2020/12/11 04:38:16;;;;;;;;;65.50;50.75;;;;;;;;12435728;28;8840;-48
2020/12/11 04:44:18;;;;;;;;;62.50;51.50;;;;;;;;12437213;28;8860;-46
2020/12/11 04:50:19;;;;;;;;;55.50;44.25;;;;;;;;12435269;28;9645;-48
2020/12/11 04:56:22;;;;;;;;;41.75;33.50;;;;;;;;12436905;28;8879;-49
2020/12/11 05:02:26;;;;;;;;;53.75;46.75;;;;;;;;12898479;22;8890;-53
2020/12/11 05:08:28;;;;;;;;;51.00;43.00;;;;;;;;12529193;28;8831;-50
2020/12/11 05:14:31;;;;;;;;;58.00;47.00;;;;;;;;12535256;28;8878;-50
2020/12/11 05:20:32;;;;;;;;;49.75;42.00;;;;;;;;12535731;28;8843;-50
2020/12/11 05:26:36;;;;;;;;;51.25;42.25;;;;;;;;12534975;28;8834;-53
2020/12/11 05:32:44;;;;;;;;;48.75;42.75;;;;;;;;12536939;28;8839;-51
2020/12/11 05:38:47;;;;;;;;;59.00;47.75;;;;;;;;12533891;28;8857;-52
2020/12/11 05:44:48;;;;;;;;;53.25;47.75;;;;;;;;12534740;28;8835;-52
2020/12/11 05:50:51;;;;;;;;;61.50;48.25;;;;;;;;12534132;28;8855;-52
2020/12/11 05:56:52;;;;;;;;;53.75;45.75;;;;;;;;12533759;28;8869;-53
2020/12/11 06:02:55;;;;;;;;;41.50;39.00;;;;;;;;12539897;28;8867;-51
2020/12/11 06:08:57;;;;;;;;;58.00;46.75;;;;;;;;12556204;28;8836;-52
2020/12/11 06:15:05;;;;;;;;;61.50;50.50;;;;;;;;12555354;28;8900;-52
2020/12/11 06:21:06;;;;;;;;;55.50;44.25;;;;;;;;12521337;28;8868;-53
2020/12/11 06:27:08;;;;;;;;;55.00;46.50;;;;;;;;12554360;28;8894;-54
2020/12/11 06:33:11;;;;;;;;;51.50;45.25;;;;;;;;12555684;28;8840;-53
2020/12/11 06:39:45;;;;;;;;;54.25;41.50;;;;;;;;12554190;28;8828;-51
2020/12/11 06:46:09;;;;;;;;;62.50;48.00;;;;;;;;12551740;28;8839;-56
2020/12/11 06:52:12;;;;;;;;;52.75;45.25;;;;;;;;12553620;28;8962;-52
2020/12/11 06:58:20;;;;;;;;;46.00;41.50;;;;;;;;12546177;28;9003;-53
2020/12/11 07:04:23;;;;;;;;;56.50;45.50;;;;;;;;12553545;28;8891;-57
2020/12/11 07:10:26;;;;;;;;;52.00;42.75;;;;;;;;12552711;28;8865;-53
2020/12/11 07:16:28;;;;;;;;;50.50;45.25;;;;;;;;12554575;28;8856;-52
2020/12/11 07:22:32;;;;;;;;;58.00;50.00;;;;;;;;12552809;28;8829;-49
2020/12/11 07:28:34;;;;;;;;;57.00;48.25;;;;;;;;12560156;28;8828;-51
2020/12/11 07:34:37;;;;;;;;;53.75;47.25;;;;;;;;12563200;28;8844;-52
2020/12/11 07:40:38;;;;;;;;;45.75;42.50;;;;;;;;12563277;28;8843;-51
2020/12/11 07:46:40;;;;;;;;;57.00;45.00;;;;;;;;12563904;28;8863;-58
2020/12/11 07:52:42;;;;;;;;;55.25;46.50;;;;;;;;12557267;28;8865;-48
2020/12/11 07:58:44;;;;;;;;;60.75;47.25;;;;;;;;12563023;28;8837;-51
2020/12/11 08:04:46;;;;;;;;;54.25;44.50;;;;;;;;12558529;28;8840;-52
2020/12/11 08:10:47;;;;;;;;;57.25;45.00;;;;;;;;12560531;28;8870;-50
2020/12/11 08:16:50;;;;;;;;;45.75;41.50;;;;;;;;12562527;28;9592;-56
2020/12/11 08:22:52;;;;;;;;;43.50;38.75;;;;;;;;12557203;28;8913;-52
2020/12/11 08:29:04;;;;;;;;;31.50;27.00;;;;;;;;12561016;28;8872;-55
2020/12/11 08:35:32;;;;;;;;;45.25;39.75;;;;;;;;12553578;28;8876;-53
2020/12/11 08:41:46;;;;;;;;;44.25;40.00;;;;;;;;12543793;28;8837;-52
2020/12/11 08:48:26;;;;;;;;;29.75;29.50;;;;;;;;12561493;28;9617;-48
2020/12/11 08:54:27;;;;;;;;;27.00;24.50;;;;;;;;12553952;28;8832;-47
2020/12/11 09:00:29;;;;;;;;;55.00;42.75;;;;;;;;12558915;28;8841;-58
2020/12/11 09:06:31;;;;;;;;;25.50;24.00;;;;;;;;12554221;28;8877;-53
2020/12/11 09:12:34;;;;;;;;;43.25;40.00;;;;;;;;12551943;28;8845;-50
2020/12/11 09:18:36;;;;;;;;;37.00;33.50;;;;;;;;12535970;28;8836;-53
2020/12/11 09:24:37;;;;;;;;;36.25;35.75;;;;;;;;12559770;28;8864;-50
2020/12/11 09:30:40;;;;;;;;;37.00;34.00;;;;;;;;12555642;28;8855;-55
2020/12/11 09:36:42;;;;;;;;;43.25;40.75;;;;;;;;12555200;28;8899;-53
2020/12/11 09:49:04;;;;;;;;;34.75;30.75;;;;;;;;12551705;28;8839;-51
2020/12/11 09:55:10;;;;;;;;;41.00;36.50;;;;;;;;12556448;28;8853;-53
2020/12/11 10:01:11;;;;;;;;;36.50;33.00;;;;;;;;12552428;28;8854;-52
2020/12/11 10:07:14;;;;;;;;;38.75;38.75;;;;;;;;12555905;28;8892;-52
2020/12/11 10:13:15;;;;;;;;;32.00;30.75;;;;;;;;12551851;28;8853;-53
2020/12/11 10:19:18;;;;;;;;;32.75;30.00;;;;;;;;12549055;28;8855;-53
2020/12/11 10:25:20;;;;;;;;;26.50;26.50;;;;;;;;12554116;28;8859;-49
2020/12/11 10:31:29;;;;;;;;;29.50;28.00;;;;;;;;12559758;28;8882;-47
2020/12/11 10:37:31;;;;;;;;;35.50;35.25;;;;;;;;12551570;28;8847;-51
2020/12/11 10:43:32;;;;;;;;;27.75;26.75;;;;;;;;12558670;28;8831;-54
2020/12/11 10:49:34;;;;;;;;;21.50;21.00;;;;;;;;12551542;28;8848;-54
2020/12/11 10:55:35;;;;;;;;;26.50;25.50;;;;;;;;12554326;28;8841;-55
2020/12/11 11:01:37;;;;;;;;;56.50;44.50;;;;;;;;12544473;28;8872;-51
2020/12/11 11:07:39;;;;;;;;;27.25;24.75;;;;;;;;12551644;28;8826;-50
2020/12/11 11:32:11;;;;;;;;;55.00;43.75;;;;;;;;12541501;28;8832;-50
2020/12/11 11:38:14;;;;;;;;;53.00;43.75;;;;;;;;12553397;28;8840;-51
2020/12/11 11:56:28;;;;;;;;;42.50;35.75;;;;;;;;12554805;28;8908;-51
2020/12/11 12:02:29;;;;;;;;;49.00;42.75;;;;;;;;12546654;28;8845;-55
2020/12/11 12:08:31;;;;;;;;;39.00;33.50;;;;;;;;12550274;28;9630;-51
2020/12/11 12:14:32;;;;;;;;;56.00;45.00;;;;;;;;12556929;28;8841;-53
2020/12/11 12:21:04;;;;;;;;;47.75;41.75;;;;;;;;12543713;28;8914;-54
2020/12/11 12:45:33;;;;;;;;;40.50;39.25;;;;;;;;12526524;28;8838;-57
2020/12/11 12:51:35;;;;;;;;;32.50;30.50;;;;;;;;12533730;28;8882;-57
2020/12/11 13:09:59;;;;;;;;;34.25;32.25;;;;;;;;12515251;28;8838;-56
2020/12/11 13:16:00;;;;;;;;;46.50;40.25;;;;;;;;12512482;28;8834;-56
2020/12/11 13:28:12;;;;;;;;;40.75;37.00;;;;;;;;12514528;28;8887;-56
2020/12/11 13:34:13;;;;;;;;;40.00;36.25;;;;;;;;12522092;28;9010;-55
2020/12/11 13:40:15;;;;;;;;;47.75;40.75;;;;;;;;12530921;28;9616;-54
2020/12/11 13:46:16;;;;;;;;;42.00;41.00;;;;;;;;12522399;28;8980;-54
2020/12/11 13:52:18;;;;;;;;;53.75;42.00;;;;;;;;12518110;28;8842;-52
2020/12/11 13:58:19;;;;;;;;;44.00;39.75;;;;;;;;12525810;28;8848;-55
2020/12/11 14:04:21;;;;;;;;;25.50;25.50;;;;;;;;12510827;28;8846;-54
2020/12/11 14:10:25;;;;;;;;;53.00;40.25;;;;;;;;12518977;28;8845;-53
2020/12/11 14:16:47;;;;;;;;;43.00;40.50;;;;;;;;12518730;28;8850;-51
2020/12/11 14:22:52;;;;;;;;;48.75;42.50;;;;;;;;12504763;28;8848;-54
2020/12/11 14:28:53;;;;;;;;;48.50;42.00;;;;;;;;12514771;28;9408;-55
2020/12/11 14:34:54;;;;;;;;;40.00;35.75;;;;;;;;12496814;28;8933;-56
2020/12/11 14:40:56;;;;;;;;;48.25;41.50;;;;;;;;12512849;28;8868;-57
2020/12/11 14:46:57;;;;;;;;;35.00;34.25;;;;;;;;12510610;28;8832;-54
2020/12/11 14:52:59;;;;;;;;;39.25;37.00;;;;;;;;12506814;28;8852;-53
2020/12/11 14:59:00;;;;;;;;;43.50;39.75;;;;;;;;12508157;28;8836;-54
2020/12/11 15:05:02;;;;;;;;;48.00;43.00;;;;;;;;12502985;28;8993;-55
2020/12/11 15:11:04;;;;;;;;;53.75;43.00;;;;;;;;12518613;28;8834;-57
2020/12/11 15:17:06;;;;;;;;;53.25;43.25;;;;;;;;12501041;28;8832;-55
2020/12/11 15:23:07;;;;;;;;;52.75;44.00;;;;;;;;12502924;28;8933;-56
2020/12/11 15:29:09;;;;;;;;;46.25;43.00;;;;;;;;12502407;28;9593;-56
2020/12/11 15:35:10;;;;;;;;;47.75;42.25;;;;;;;;12504938;28;8844;-56
2020/12/11 15:41:13;;;;;;;;;47.75;42.25;;;;;;;;12503508;28;8840;-56
2020/12/11 15:47:15;;;;;;;;;52.25;43.00;;;;;;;;12512080;28;8836;-56
2020/12/11 15:53:19;;;;;;;;;47.50;40.25;;;;;;;;12514256;28;8847;-57
2020/12/11 15:59:21;;;;;;;;;50.50;40.25;;;;;;;;12512601;28;8844;-58
2020/12/11 16:05:22;;;;;;;;;48.00;42.50;;;;;;;;12513385;28;8851;-56
2020/12/11 16:11:28;;;;;;;;;45.75;40.75;;;;;;;;12512761;28;8844;-56
2020/12/11 16:17:30;;;;;;;;;46.00;37.75;;;;;;;;12511857;28;8838;-55
2020/12/11 16:23:31;;;;;;;;;29.50;26.50;;;;;;;;12513114;28;8858;-56
2020/12/11 16:29:34;;;;;;;;;41.25;38.75;;;;;;;;12510949;28;9657;-57
2020/12/11 16:35:36;;;;;;;;;41.25;37.50;;;;;;;;12511966;28;8872;-56
2020/12/11 16:41:38;;;;;;;;;23.00;20.50;;;;;;;;12512395;28;9614;-57
2020/12/11 16:47:44;;;;;;;;;38.50;36.25;;;;;;;;12515192;28;8830;-55
2020/12/11 16:53:45;;;;;;;;;37.50;31.75;;;;;;;;12488577;28;8843;-54
2020/12/11 16:59:53;;;;;;;;;40.75;34.00;;;;;;;;12508634;28;8856;-57
2020/12/11 17:12:01;;;;;;;;;34.50;28.50;;;;;;;;12509437;28;8859;-58
2020/12/11 17:18:03;;;;;;;;;36.00;30.00;;;;;;;;12509678;28;8846;-56
2020/12/11 17:24:04;;;;;;;;;32.50;26.00;;;;;;;;12510713;28;8836;-54
2020/12/11 17:30:55;;;;;;;;;38.00;35.50;;;;;;;;12508179;28;8851;-55
2020/12/11 17:36:33;;;;;;;;;30.25;28.25;;;;;;;;12502108;28;8957;-57
2020/12/11 17:42:34;;;;;;;;;33.75;32.50;;;;;;;;12499938;28;8892;-56
2020/12/11 17:48:36;;;;;;;;;35.00;28.75;;;;;;;;12508375;28;8828;-55
2020/12/11 17:54:37;;;;;;;;;31.50;30.25;;;;;;;;12508342;28;8847;-57
2020/12/11 18:00:40;;;;;;;;;39.00;35.75;;;;;;;;12504286;28;8865;-56
2020/12/11 18:06:41;;;;;;;;;36.50;33.50;;;;;;;;12512676;28;8842;-58
2020/12/11 18:12:42;;;;;;;;;38.00;35.25;;;;;;;;12505637;28;8858;-58
2020/12/11 18:18:44;;;;;;;;;30.75;25.75;;;;;;;;12507054;28;8850;-57
2020/12/11 18:24:46;;;;;;;;;32.50;26.75;;;;;;;;12507516;28;8865;-57
2020/12/11 18:30:48;;;;;;;;;30.50;25.75;;;;;;;;12506363;28;8846;-57
2020/12/11 18:36:50;;;;;;;;;33.25;26.25;;;;;;;;12504466;28;8844;-56
2020/12/11 18:42:52;;;;;;;;;26.50;25.50;;;;;;;;12505693;28;8828;-55
2020/12/11 18:48:54;;;;;;;;;32.50;28.50;;;;;;;;12505898;28;8874;-56
2020/12/11 18:54:59;;;;;;;;;31.75;27.75;;;;;;;;12507798;28;8845;-55
2020/12/11 19:01:01;;;;;;;;;31.50;25.50;;;;;;;;12503827;28;8894;-55
2020/12/11 19:07:03;;;;;;;;;28.75;27.75;;;;;;;;12505989;28;8846;-56
2020/12/11 19:13:05;;;;;;;;;40.25;33.00;;;;;;;;12503612;28;8842;-57
2020/12/11 19:19:07;;;;;;;;;31.75;30.00;;;;;;;;12504561;28;8996;-60
2020/12/11 19:25:08;;;;;;;;;35.25;33.25;;;;;;;;12504515;28;8858;-56
2020/12/11 19:31:10;;;;;;;;;41.00;34.00;;;;;;;;12494863;28;8858;-57
2020/12/11 19:37:11;;;;;;;;;36.75;33.50;;;;;;;;12504689;28;8856;-55
2020/12/11 19:43:12;;;;;;;;;50.50;43.00;;;;;;;;12503579;28;8859;-55
2020/12/11 19:49:14;;;;;;;;;44.75;42.75;;;;;;;;12502898;28;8855;-56
2020/12/11 19:55:16;;;;;;;;;58.75;44.75;;;;;;;;12504281;28;8859;-56
2020/12/11 20:01:17;;;;;;;;;57.25;47.00;;;;;;;;12502285;28;8848;-56
2020/12/11 20:13:36;;;;;;;;;42.50;36.00;;;;;;;;12498015;28;8836;-57
2020/12/11 20:19:38;;;;;;;;;47.50;40.50;;;;;;;;12502554;28;8839;-56
2020/12/11 20:25:39;;;;;;;;;34.50;28.75;;;;;;;;12503334;28;8839;-55
2020/12/11 20:31:46;;;;;;;;;44.00;34.50;;;;;;;;12501862;28;8832;-56
2020/12/11 20:37:48;;;;;;;;;38.50;35.50;;;;;;;;12511206;28;8868;-55
2020/12/11 20:43:49;;;;;;;;;39.50;33.50;;;;;;;;12510565;28;8855;-54
2020/12/11 20:49:51;;;;;;;;;34.25;31.25;;;;;;;;12506133;28;8857;-56
2020/12/11 20:55:52;;;;;;;;;37.25;34.50;;;;;;;;12510336;28;8885;-58
2020/12/11 21:01:54;;;;;;;;;29.50;27.50;;;;;;;;12509339;28;8846;-56
2020/12/11 21:07:55;;;;;;;;;31.75;26.00;;;;;;;;12511216;28;8834;-56
2020/12/11 21:13:57;;;;;;;;;34.75;29.25;;;;;;;;12509578;28;9739;-57
2020/12/11 21:19:59;;;;;;;;;29.00;26.75;;;;;;;;12509343;28;8862;-56
2020/12/11 21:26:00;;;;;;;;;39.25;35.25;;;;;;;;12509282;28;8854;-54
2020/12/11 21:32:02;;;;;;;;;37.25;34.25;;;;;;;;12509278;28;9685;-55
2020/12/11 21:38:04;;;;;;;;;30.50;30.50;;;;;;;;12512002;28;8948;-55
2020/12/11 21:44:05;;;;;;;;;35.00;32.00;;;;;;;;12507309;28;8927;-55
2020/12/11 21:50:08;;;;;;;;;34.50;32.25;;;;;;;;12489062;28;8890;-56
2020/12/11 21:56:09;;;;;;;;;43.25;38.00;;;;;;;;12508254;28;8832;-57
2020/12/11 22:02:11;;;;;;;;;52.50;37.75;;;;;;;;12515498;28;8840;-56
2020/12/11 22:08:12;;;;;;;;;41.75;37.25;;;;;;;;12508661;28;8852;-56
2020/12/11 22:14:14;;;;;;;;;45.75;39.00;;;;;;;;12505431;28;8954;-56
2020/12/11 22:20:16;;;;;;;;;46.75;39.75;;;;;;;;12507023;28;8828;-57
2020/12/11 22:26:17;;;;;;;;;45.25;40.25;;;;;;;;12506621;28;8921;-56
2020/12/11 22:32:18;;;;;;;;;40.50;37.00;;;;;;;;12505247;28;8854;-56
2020/12/11 22:38:20;;;;;;;;;50.75;43.50;;;;;;;;12508537;28;8879;-54
2020/12/11 22:44:21;;;;;;;;;43.75;38.75;;;;;;;;12505553;28;8828;-56
2020/12/11 22:50:26;;;;;;;;;43.50;40.00;;;;;;;;12504800;28;9632;-56
2020/12/11 22:56:27;;;;;;;;;50.50;43.00;;;;;;;;12505184;28;9605;-55
2020/12/11 23:02:29;;;;;;;;;46.25;42.00;;;;;;;;12504400;28;8874;-55
2020/12/11 23:08:30;;;;;;;;;53.75;44.75;;;;;;;;12505493;28;8830;-54
2020/12/11 23:14:31;;;;;;;;;51.25;37.75;;;;;;;;12504707;28;8833;-56
2020/12/11 23:20:33;;;;;;;;;37.75;37.75;;;;;;;;12503532;28;8973;-56
2020/12/11 23:26:34;;;;;;;;;39.50;31.00;;;;;;;;12504695;28;8857;-56
2020/12/11 23:32:35;;;;;;;;;38.25;34.00;;;;;;;;12503882;28;9646;-55
2020/12/11 23:38:37;;;;;;;;;33.00;29.50;;;;;;;;12504497;28;8853;-56
2020/12/11 23:44:39;;;;;;;;;23.25;21.75;;;;;;;;12503407;28;8846;-56
2020/12/11 23:50:40;;;;;;;;;31.75;28.75;;;;;;;;12503920;28;8876;-52
2020/12/11 23:56:42;;;;;;;;;28.50;26.00;;;;;;;;12504484;28;8830;-53
